Time;durP1;ratioP1;P1;durP2;ratioP2;P2;SDS_P1;SDS_P2;PMS_P1;PMS_P2;Temp;Humidity;BMP_temperature;BMP_pressure;BME280_temperature;BME280_humidity;BME280_pressure;Samples;Min_cycle;Max_cycle;Signal;HPM_P1;HPM_P2
2021/09/08 00:00:10;;;;;;;3.78;1.95;;;;;;;17.60;93.76;101586.94;4991626;28;20031;-70
2021/09/08 00:02:39;;;;;;;4.38;2.13;;;;;;;17.56;94.17;101584.19;5000173;28;20112;-69
2021/09/08 00:05:07;;;;;;;3.78;2.17;;;;;;;17.60;94.40;101585.00;4995065;28;20062;-69
2021/09/08 00:07:32;;;;;;;3.25;1.80;;;;;;;17.49;94.02;101584.16;4991613;28;20080;-69
2021/09/08 00:09:58;;;;;;;2.85;1.80;;;;;;;17.47;94.13;101580.22;4982852;28;20109;-69
2021/09/08 00:12:23;;;;;;;3.45;2.00;;;;;;;17.38;94.68;101587.94;4980329;28;20042;-70
2021/09/08 00:14:49;;;;;;;3.97;1.88;;;;;;;17.34;95.21;101584.41;4990809;28;20038;-69
2021/09/08 00:17:14;;;;;;;2.88;1.83;;;;;;;17.35;94.79;101578.56;4992739;28;20113;-69
2021/09/08 00:19:40;;;;;;;2.90;1.88;;;;;;;17.48;94.31;101577.13;4996286;28;20050;-69
2021/09/08 00:22:09;;;;;;;3.00;1.80;;;;;;;17.51;93.77;101575.59;4990204;28;20792;-69
2021/09/08 00:24:35;;;;;;;3.63;1.98;;;;;;;17.43;94.05;101569.31;4957477;28;20030;-69
2021/09/08 00:27:04;;;;;;;4.75;2.20;;;;;;;17.35;93.81;101573.13;4971428;28;20586;-69
2021/09/08 00:29:29;;;;;;;2.78;1.90;;;;;;;17.31;93.50;101572.31;4991680;28;20041;-69
2021/09/08 00:31:56;;;;;;;2.80;2.10;;;;;;;17.13;95.16;101568.66;4990470;28;20402;-69
2021/09/08 00:34:22;;;;;;;2.97;1.90;;;;;;;17.10;95.31;101561.25;4983633;28;20034;-69
2021/09/08 00:36:47;;;;;;;2.28;1.70;;;;;;;17.17;95.05;101561.31;4990210;28;20026;-69
2021/09/08 00:39:14;;;;;;;2.88;1.88;;;;;;;17.15;95.17;101566.34;4991088;28;20030;-69
2021/09/08 00:41:41;;;;;;;4.82;2.20;;;;;;;17.17;94.94;101563.25;4972888;28;20031;-70
2021/09/08 00:44:09;;;;;;;3.97;1.70;;;;;;;17.06;94.85;101574.06;4984877;28;20034;-68
2021/09/08 00:46:39;;;;;;;5.18;2.20;;;;;;;17.10;95.13;101561.25;4995400;28;20038;-70
2021/09/08 00:49:07;;;;;;;3.40;2.03;;;;;;;17.05;95.27;101561.63;4989797;28;20031;-70
2021/09/08 00:51:36;;;;;;;3.95;2.00;;;;;;;17.08;95.11;101569.81;4982535;28;20114;-69
2021/09/08 00:54:05;;;;;;;4.32;2.33;;;;;;;17.04;95.46;101566.28;4988374;28;20073;-70
2021/09/08 00:56:31;;;;;;;3.97;2.03;;;;;;;17.00;95.33;101562.72;4992017;28;20026;-70
2021/09/08 00:58:59;;;;;;;5.90;1.95;;;;;;;16.96;95.68;101561.13;4986961;28;20069;-69
2021/09/08 01:01:24;;;;;;;6.85;2.42;;;;;;;16.97;95.34;101562.69;4993519;28;20062;-67
2021/09/08 01:03:51;;;;;;;5.20;2.10;;;;;;;16.93;96.27;101556.44;4994110;28;20038;-69
2021/09/08 01:06:20;;;;;;;4.13;2.20;;;;;;;16.92;96.61;101560.31;5002200;28;20056;-70
2021/09/08 01:08:51;;;;;;;4.93;2.40;;;;;;;16.92;96.50;101558.38;4997229;28;20101;-70
2021/09/08 01:11:18;;;;;;;3.50;1.90;;;;;;;16.83;96.73;101551.69;4975016;28;20042;-70
2021/09/08 01:13:43;;;;;;;4.30;2.20;;;;;;;16.89;95.91;101550.19;4996874;28;20028;-70
2021/09/08 01:16:10;;;;;;;3.95;2.08;;;;;;;16.80;96.41;101547.00;4993675;28;20069;-68
2021/09/08 01:18:36;;;;;;;3.05;2.10;;;;;;;16.85;96.19;101547.44;4985113;28;20463;-69
2021/09/08 01:21:03;;;;;;;2.83;2.00;;;;;;;16.86;95.94;101540.81;4994316;28;20025;-69
2021/09/08 01:23:31;;;;;;;5.90;2.55;;;;;;;16.78;96.08;101546.59;4993619;28;20402;-70
2021/09/08 01:26:01;;;;;;;3.58;2.08;;;;;;;16.78;96.10;101543.88;4992432;28;20088;-70
2021/09/08 01:28:27;;;;;;;4.22;2.30;;;;;;;16.78;95.26;101541.91;4993179;28;20109;-70
2021/09/08 01:30:54;;;;;;;3.53;2.13;;;;;;;16.62;96.18;101546.03;4993125;28;20546;-70
2021/09/08 01:33:20;;;;;;;3.88;2.40;;;;;;;16.57;96.69;101543.66;4993260;28;20038;-70
2021/09/08 01:35:46;;;;;;;4.38;2.13;;;;;;;16.62;96.55;101541.38;5001157;28;20347;-70
2021/09/08 01:38:11;;;;;;;3.53;1.83;;;;;;;16.51;96.53;101537.00;4993542;28;20517;-70
2021/09/08 01:40:36;;;;;;;3.92;2.13;;;;;;;16.49;96.79;101539.31;4998997;28;20034;-70
2021/09/08 01:43:02;;;;;;;4.07;2.00;;;;;;;16.57;96.06;101540.94;4971410;28;20117;-70
2021/09/08 01:45:28;;;;;;;3.70;2.05;;;;;;;16.62;95.76;101546.81;4997185;28;20065;-70
2021/09/08 01:47:55;;;;;;;4.30;2.40;;;;;;;16.68;95.33;101550.78;4996129;28;20038;-69
2021/09/08 01:50:22;;;;;;;3.15;1.98;;;;;;;16.51;95.89;101539.72;5002216;28;20034;-69
2021/09/08 01:52:48;;;;;;;4.82;2.10;;;;;;;16.45;96.34;101539.25;4985825;28;20082;-69
2021/09/08 01:55:14;;;;;;;3.47;1.77;;;;;;;16.50;95.85;101538.13;4981169;28;21036;-69
2021/09/08 01:57:40;;;;;;;3.20;2.05;;;;;;;16.51;95.82;101540.47;4984840;28;20406;-69
2021/09/08 02:00:07;;;;;;;5.95;2.75;;;;;;;16.58;95.03;101542.50;4997481;28;20390;-69
2021/09/08 02:02:38;;;;;;;3.20;1.98;;;;;;;16.56;95.36;101537.44;4997659;28;20121;-69
2021/09/08 02:05:04;;;;;;;2.90;2.05;;;;;;;16.41;95.61;101535.69;4995862;28;20177;-69
2021/09/08 02:07:29;;;;;;;4.18;2.28;;;;;;;16.48;95.53;101543.13;4986485;28;20025;-70
2021/09/08 02:09:56;;;;;;;4.53;2.00;;;;;;;16.40;95.74;101545.00;4979832;28;20049;-69
2021/09/08 02:12:22;;;;;;;5.05;2.50;;;;;;;16.35;96.22;101531.75;4990667;28;20305;-69
2021/09/08 02:14:47;;;;;;;3.38;2.30;;;;;;;16.17;96.79;101533.47;4992164;28;20037;-69
2021/09/08 02:17:13;;;;;;;3.67;2.00;;;;;;;16.09;97.21;101534.53;4993418;28;20022;-69
2021/09/08 02:19:38;;;;;;;3.95;1.80;;;;;;;16.13;97.22;101533.44;5001292;28;20052;-70
2021/09/08 02:22:04;;;;;;;5.45;2.28;;;;;;;16.11;97.10;101535.72;4987877;28;20093;-70
2021/09/08 02:24:29;;;;;;;4.72;1.98;;;;;;;16.09;97.44;101535.31;4993960;28;20088;-70
2021/09/08 02:26:54;;;;;;;4.90;2.00;;;;;;;16.14;96.66;101529.53;4992566;28;20516;-70
2021/09/08 02:29:20;;;;;;;5.45;2.00;;;;;;;16.13;96.62;101532.63;4993276;28;20427;-70
2021/09/08 02:31:45;;;;;;;3.72;2.20;;;;;;;16.23;95.94;101540.16;5000930;28;20044;-70
2021/09/08 02:34:11;;;;;;;3.97;2.03;;;;;;;16.24;95.75;101537.03;4991547;28;20041;-70
2021/09/08 02:36:37;;;;;;;5.03;2.40;;;;;;;16.22;95.86;101550.22;4996500;28;20477;-69
2021/09/08 02:39:06;;;;;;;4.72;1.98;;;;;;;16.13;96.63;101541.59;4989935;28;20049;-70
2021/09/08 02:41:31;;;;;;;4.53;2.00;;;;;;;16.05;97.08;101539.94;4993009;28;20038;-70
2021/09/08 02:43:57;;;;;;;4.70;2.03;;;;;;;15.99;97.28;101535.97;4981351;28;20046;-70
2021/09/08 02:46:22;;;;;;;5.53;1.92;;;;;;;15.97;97.61;101537.47;4997908;28;20406;-69
2021/09/08 02:48:48;;;;;;;3.28;1.95;;;;;;;15.89;97.81;101538.56;4999996;28;20402;-69
2021/09/08 02:51:13;;;;;;;4.60;2.58;;;;;;;15.98;97.52;101531.69;4991498;28;20049;-70
2021/09/08 02:53:39;;;;;;;2.88;1.83;;;;;;;16.00;97.45;101531.31;4987657;28;20045;-71
2021/09/08 02:56:04;;;;;;;3.95;2.30;;;;;;;16.01;97.04;101533.66;4973446;28;20038;-69
2021/09/08 02:58:30;;;;;;;3.40;1.83;;;;;;;16.02;97.33;101535.25;4993550;28;20037;-70
2021/09/08 03:00:56;;;;;;;5.03;2.70;;;;;;;16.03;97.02;101531.34;4975134;28;20066;-70
2021/09/08 03:03:22;;;;;;;3.55;2.15;;;;;;;16.06;97.08;101525.19;4988884;28;20056;-69
2021/09/08 03:05:48;;;;;;;7.15;2.80;;;;;;;16.08;96.70;101524.81;4985486;28;20037;-69
2021/09/08 03:08:15;;;;;;;4.75;2.15;;;;;;;16.09;96.80;101524.44;4992373;28;20388;-70
2021/09/08 03:10:43;;;;;;;5.05;2.25;;;;;;;16.09;96.68;101518.22;4995636;28;20115;-67
2021/09/08 03:13:08;;;;;;;4.05;2.38;;;;;;;16.11;96.94;101526.78;4990610;28;20046;-67
2021/09/08 03:15:34;;;;;;;5.40;2.33;;;;;;;16.10;96.95;101520.56;4992040;28;20507;-67
2021/09/08 03:17:59;;;;;;;5.88;2.42;;;;;;;16.11;96.82;101519.44;4992472;28;20566;-67
2021/09/08 03:20:25;;;;;;;4.40;2.30;;;;;;;16.07;96.82;101517.81;4998936;28;20037;-67
2021/09/08 03:22:50;;;;;;;7.38;2.72;;;;;;;16.02;96.62;101512.72;4988937;28;20045;-68
2021/09/08 03:25:16;;;;;;;3.97;2.22;;;;;;;15.82;97.20;101509.38;4991434;28;20018;-67
2021/09/08 03:27:41;;;;;;;5.13;2.40;;;;;;;15.83;97.80;101513.63;4992104;28;20114;-68
2021/09/08 03:30:07;;;;;;;4.85;2.40;;;;;;;15.79;97.76;101504.69;4997906;28;20044;-68
2021/09/08 03:32:33;;;;;;;4.00;2.25;;;;;;;15.80;97.76;101506.22;4984536;28;20031;-69
2021/09/08 03:34:58;;;;;;;5.82;2.15;;;;;;;15.76;97.89;101499.97;4974306;28;20039;-68
2021/09/08 03:37:24;;;;;;;4.43;2.40;;;;;;;15.70;98.06;101496.00;4976131;28;20023;-68
2021/09/08 03:39:51;;;;;;;5.47;2.05;;;;;;;15.66;98.38;101494.41;4975009;28;20053;-67
2021/09/08 03:42:17;;;;;;;4.30;2.38;;;;;;;15.56;98.73;101493.13;4975485;28;20499;-68
2021/09/08 03:44:42;;;;;;;4.75;2.50;;;;;;;15.56;98.84;101495.03;4972988;28;20076;-69
2021/09/08 03:47:08;;;;;;;4.65;2.35;;;;;;;15.56;98.59;101495.03;4978654;28;20045;-68
2021/09/08 03:49:33;;;;;;;3.63;2.30;;;;;;;15.52;98.60;101489.56;4974143;28;20034;-69
2021/09/08 03:51:59;;;;;;;4.78;2.83;;;;;;;15.56;98.68;101484.19;4986459;28;20035;-69
2021/09/08 03:54:24;;;;;;;5.57;2.60;;;;;;;15.48;98.87;101486.03;4983121;28;20053;-69
2021/09/08 03:56:50;;;;;;;4.50;2.50;;;;;;;15.49;98.85;101493.00;4990849;28;20038;-69
2021/09/08 03:59:15;;;;;;;4.20;2.35;;;;;;;15.38;99.86;101497.47;4990225;28;20070;-68
2021/09/08 04:01:41;;;;;;;5.60;2.60;;;;;;;15.43;99.65;101499.13;4990873;28;20550;-68
2021/09/08 04:04:07;;;;;;;7.53;2.70;;;;;;;15.48;99.11;101482.53;5017598;23;20045;-66
2021/09/08 04:06:33;;;;;;;4.05;2.42;;;;;;;15.44;99.21;101490.63;5015363;28;20721;-66
2021/09/08 04:08:58;;;;;;;4.00;2.40;;;;;;;15.48;99.18;101491.47;5012410;28;20037;-66
2021/09/08 04:11:23;;;;;;;4.82;2.28;;;;;;;15.39;99.29;101483.53;5014635;28;20038;-66
2021/09/08 04:13:49;;;;;;;5.00;2.60;;;;;;;15.41;99.54;101483.16;5021364;28;20021;-66
2021/09/08 04:16:14;;;;;;;5.43;3.08;;;;;;;15.42;99.04;101482.06;5028078;28;20098;-66
2021/09/08 04:18:40;;;;;;;4.15;2.75;;;;;;;15.45;99.33;101481.31;5011498;28;20061;-66
2021/09/08 04:21:05;;;;;;;5.78;2.83;;;;;;;15.43;99.18;101475.47;5029855;28;20501;-66
2021/09/08 04:23:31;;;;;;;7.35;3.00;;;;;;;15.42;99.25;101478.56;5010675;28;20493;-66
2021/09/08 04:25:56;;;;;;;5.25;2.70;;;;;;;15.39;99.35;101480.03;5026379;28;20069;-66
2021/09/08 04:28:22;;;;;;;5.18;3.33;;;;;;;15.43;99.73;101486.31;5019427;28;20480;-66
2021/09/08 04:30:47;;;;;;;8.55;3.22;;;;;;;15.39;100.00;101486.25;5018234;28;20112;-66
2021/09/08 04:33:12;;;;;;;6.85;3.22;;;;;;;15.42;100.00;101479.34;5022243;28;20033;-66
2021/09/08 04:35:40;;;;;;;6.15;2.75;;;;;;;15.39;100.00;101483.53;5032587;28;20056;-66
2021/09/08 04:38:05;;;;;;;7.10;3.63;;;;;;;15.42;100.00;101482.06;5034452;28;20025;-66
2021/09/08 04:40:31;;;;;;;7.78;3.95;;;;;;;15.46;100.00;101480.19;5033041;28;20516;-66
2021/09/08 04:42:56;;;;;;;6.45;3.22;;;;;;;15.43;100.00;101485.56;5025550;28;20506;-66
2021/09/08 04:45:22;;;;;;;5.78;3.50;;;;;;;15.33;100.00;101481.50;5027641;28;20042;-66
2021/09/08 04:47:47;;;;;;;8.02;3.60;;;;;;;15.41;100.00;101485.88;5023695;28;20104;-66
2021/09/08 04:50:12;;;;;;;5.43;3.33;;;;;;;15.38;100.00;101492.06;5022957;28;20493;-66
2021/09/08 04:52:38;;;;;;;5.28;2.85;;;;;;;15.37;100.00;101485.84;5029524;28;20061;-65
2021/09/08 04:55:06;;;;;;;4.72;2.67;;;;;;;15.35;100.00;101493.56;5032144;28;20412;-66
2021/09/08 04:57:31;;;;;;;5.53;2.78;;;;;;;15.45;100.00;101483.28;5021347;28;20783;-66
2021/09/08 04:59:57;;;;;;;9.93;3.47;;;;;;;15.38;100.00;101481.19;5018662;28;20077;-66
2021/09/08 05:02:22;;;;;;;4.85;2.95;;;;;;;15.41;100.00;101487.84;5030805;28;20116;-66
2021/09/08 05:04:48;;;;;;;6.55;3.17;;;;;;;15.36;100.00;101480.78;5016643;28;20524;-66
2021/09/08 05:07:13;;;;;;;5.65;3.10;;;;;;;15.37;100.00;101485.03;5021772;28;20504;-66
2021/09/08 05:09:39;;;;;;;6.45;3.08;;;;;;;15.40;100.00;101484.31;5031150;28;20030;-66
2021/09/08 05:12:04;;;;;;;6.00;3.10;;;;;;;15.31;100.00;101486.53;5025503;28;20080;-66
2021/09/08 05:14:30;;;;;;;6.32;2.90;;;;;;;15.21;100.00;101490.63;5010476;28;20505;-66
2021/09/08 05:16:55;;;;;;;6.15;3.13;;;;;;;15.33;100.00;101493.13;5029827;28;20401;-66
2021/09/08 05:19:21;;;;;;;6.40;3.38;;;;;;;15.37;100.00;101496.69;5030472;28;20486;-66
2021/09/08 05:21:46;;;;;;;5.40;2.70;;;;;;;15.40;100.00;101506.03;5027621;28;20103;-66
2021/09/08 05:24:11;;;;;;;8.70;3.17;;;;;;;15.50;100.00;101499.22;5026036;28;20064;-66
2021/09/08 05:26:37;;;;;;;5.88;3.13;;;;;;;15.44;100.00;101501.47;5028925;28;20561;-65
2021/09/08 05:29:03;;;;;;;8.20;3.47;;;;;;;15.39;100.00;101501.75;5027567;28;20494;-65
2021/09/08 05:31:28;;;;;;;4.80;2.60;;;;;;;15.36;100.00;101499.78;5027121;28;20044;-66
2021/09/08 05:33:54;;;;;;;6.00;2.75;;;;;;;15.36;100.00;101503.28;5029234;28;20038;-66
2021/09/08 05:36:19;;;;;;;9.32;2.78;;;;;;;15.42;100.00;101505.69;5023432;28;20041;-66
2021/09/08 05:38:45;;;;;;;7.45;3.20;;;;;;;15.54;100.00;101503.56;5011550;28;20034;-66
2021/09/08 05:41:11;;;;;;;5.25;2.88;;;;;;;15.56;100.00;101498.56;5030119;28;20029;-66
2021/09/08 05:43:37;;;;;;;6.63;3.03;;;;;;;15.56;100.00;101505.91;5025828;28;20033;-66
2021/09/08 05:46:03;;;;;;;4.97;2.92;;;;;;;15.62;100.00;101499.00;5023533;28;20414;-66
2021/09/08 05:48:30;;;;;;;6.15;3.10;;;;;;;15.61;100.00;101497.44;5029067;28;20079;-66
2021/09/08 05:50:56;;;;;;;8.88;3.75;;;;;;;15.73;100.00;101502.66;5023163;28;20037;-66
2021/09/08 05:53:21;;;;;;;5.82;3.00;;;;;;;15.77;100.00;101501.53;5016807;28;20117;-66
2021/09/08 05:55:47;;;;;;;5.28;3.00;;;;;;;15.74;100.00;101502.28;5027314;28;20560;-66
2021/09/08 05:58:12;;;;;;;6.63;3.28;;;;;;;15.85;100.00;101503.19;5015408;28;20037;-66
2021/09/08 06:00:38;;;;;;;6.93;3.35;;;;;;;15.88;100.00;101507.09;5021484;28;20049;-66
2021/09/08 06:03:03;;;;;;;6.72;2.97;;;;;;;15.90;100.00;101507.50;5022972;28;20108;-66
2021/09/08 06:05:29;;;;;;;6.47;3.20;;;;;;;15.95;100.00;101497.09;5029608;28;20052;-66
2021/09/08 06:07:54;;;;;;;7.65;3.25;;;;;;;16.02;100.00;101507.28;5030615;28;20018;-66
2021/09/08 06:10:22;;;;;;;6.32;3.25;;;;;;;16.08;100.00;101506.59;5024551;28;20029;-66
2021/09/08 06:12:48;;;;;;;7.97;3.78;;;;;;;16.14;100.00;101510.53;5027004;28;20509;-66
2021/09/08 06:15:16;;;;;;;7.32;3.65;;;;;;;16.20;100.00;101502.84;5029187;28;20041;-66
2021/09/08 06:17:41;;;;;;;5.97;3.33;;;;;;;16.26;100.00;101513.00;5030101;28;20029;-66
2021/09/08 06:20:08;;;;;;;7.80;3.75;;;;;;;16.28;100.00;101499.81;5028726;28;20037;-66
2021/09/08 06:22:33;;;;;;;9.48;4.13;;;;;;;16.35;100.00;101510.00;5022496;28;20045;-66
2021/09/08 06:24:59;;;;;;;8.85;3.90;;;;;;;16.40;100.00;101504.22;5028016;28;20037;-66
2021/09/08 06:27:24;;;;;;;9.63;4.05;;;;;;;16.45;100.00;101497.66;5028204;28;20020;-66
2021/09/08 06:29:50;;;;;;;12.57;4.57;;;;;;;16.50;100.00;101505.50;5028982;28;20731;-66
2021/09/08 06:32:15;;;;;;;12.35;5.03;;;;;;;16.57;100.00;101505.59;5007340;28;20045;-66
2021/09/08 06:34:45;;;;;;;14.25;4.65;;;;;;;16.67;100.00;101502.94;5008049;28;20044;-66
2021/09/08 06:37:11;;;;;;;13.93;4.32;;;;;;;16.73;100.00;101493.28;5025090;28;20088;-66
2021/09/08 06:39:36;;;;;;;9.85;5.07;;;;;;;16.92;100.00;101495.00;5029764;28;20037;-66
2021/09/08 06:42:02;;;;;;;9.80;4.93;;;;;;;17.13;100.00;101489.72;5029755;28;20429;-66
2021/09/08 06:44:28;;;;;;;13.15;5.30;;;;;;;17.34;100.00;101498.06;5027961;28;20041;-66
2021/09/08 06:46:53;;;;;;;11.82;5.07;;;;;;;17.59;100.00;101490.03;5026657;28;20041;-66
2021/09/08 06:49:19;;;;;;;10.32;4.78;;;;;;;17.79;100.00;101489.34;5025905;28;20029;-66
2021/09/08 06:51:45;;;;;;;12.57;5.22;;;;;;;17.96;100.00;101485.16;5011871;28;20025;-66
2021/09/08 06:54:10;;;;;;;9.38;4.75;;;;;;;18.19;100.00;101490.28;5026617;28;20543;-66
2021/09/08 06:56:36;;;;;;;10.02;4.85;;;;;;;18.27;100.00;101480.97;5008031;28;20030;-66
2021/09/08 06:59:01;;;;;;;8.88;4.32;;;;;;;18.49;99.57;101479.84;5022818;28;20025;-66
2021/09/08 07:01:27;;;;;;;11.93;5.28;;;;;;;18.60;99.21;101483.38;5030034;28;20465;-67
2021/09/08 07:03:52;;;;;;;9.70;5.03;;;;;;;18.80;96.60;101484.56;5024425;28;20107;-66
2021/09/08 07:06:20;;;;;;;9.77;4.50;;;;;;;18.93;95.97;101482.97;5029437;28;20024;-66
2021/09/08 07:08:46;;;;;;;9.63;4.65;;;;;;;19.06;94.77;101481.44;5018544;28;20040;-66
2021/09/08 07:11:11;;;;;;;12.48;5.22;;;;;;;19.22;93.46;101489.22;5025421;28;20044;-66
2021/09/08 07:13:37;;;;;;;10.00;4.70;;;;;;;19.17;92.80;101487.66;5023441;28;20120;-67
2021/09/08 07:16:02;;;;;;;10.30;4.68;;;;;;;19.32;91.98;101491.94;5025092;28;20120;-66
2021/09/08 07:18:28;;;;;;;9.57;4.60;;;;;;;19.43;92.23;101481.78;5028464;28;20057;-66
2021/09/08 07:20:53;;;;;;;10.23;5.22;;;;;;;19.61;92.29;101487.97;5019497;28;20042;-66
2021/09/08 07:23:19;;;;;;;7.82;4.28;;;;;;;19.70;91.54;101474.66;5025028;28;20033;-66
2021/09/08 07:25:44;;;;;;;9.65;4.95;;;;;;;19.82;90.11;101480.88;5020202;28;20037;-66
2021/09/08 07:28:10;;;;;;;10.32;4.93;;;;;;;19.95;89.75;101482.78;5028475;28;20061;-66
2021/09/08 07:30:35;;;;;;;8.85;4.78;;;;;;;20.04;89.10;101476.84;5029012;28;20036;-66
2021/09/08 07:33:00;;;;;;;8.63;4.72;;;;;;;20.12;88.28;101483.84;5025937;28;20040;-66
2021/09/08 07:35:26;;;;;;;8.77;4.28;;;;;;;20.32;88.73;101493.16;5028513;28;20052;-67
2021/09/08 07:37:51;;;;;;;9.50;4.53;;;;;;;20.40;88.82;101487.22;5027771;28;20072;-66
2021/09/08 07:40:18;;;;;;;7.78;4.40;;;;;;;20.51;87.44;101487.94;5027800;28;20059;-66
2021/09/08 07:42:44;;;;;;;9.57;5.00;;;;;;;20.68;88.40;101487.03;5023836;28;20084;-66
2021/09/08 07:45:10;;;;;;;8.10;4.22;;;;;;;20.89;88.24;101477.88;5013679;28;20095;-66
2021/09/08 07:47:35;;;;;;;10.05;4.45;;;;;;;20.98;85.78;101477.41;5024599;28;20029;-66
2021/09/08 07:50:02;;;;;;;10.30;4.68;;;;;;;21.05;84.92;101480.88;5024120;28;20034;-66
2021/09/08 07:52:27;;;;;;;8.27;4.82;;;;;;;21.13;83.04;101471.41;5018844;28;20033;-66
2021/09/08 07:54:53;;;;;;;10.77;4.95;;;;;;;21.24;83.04;101477.56;5024997;28;20033;-66
2021/09/08 07:57:18;;;;;;;9.45;4.40;;;;;;;21.35;82.32;101478.22;5025187;28;20409;-66
2021/09/08 07:59:44;;;;;;;7.45;4.43;;;;;;;21.50;81.69;101471.41;5026246;28;20056;-66
2021/09/08 08:02:09;;;;;;;10.90;4.40;;;;;;;21.55;81.65;101479.19;5024256;28;20021;-66
2021/09/08 08:04:34;;;;;;;10.30;4.43;;;;;;;21.65;81.23;101466.53;5010145;28;20032;-66
2021/09/08 08:07:00;;;;;;;7.47;4.50;;;;;;;21.84;81.12;101476.91;5028434;28;20045;-66
2021/09/08 08:09:25;;;;;;;7.90;4.53;;;;;;;21.88;79.29;101465.88;5028515;28;20041;-66
2021/09/08 08:11:51;;;;;;;9.15;4.45;;;;;;;21.88;79.96;101463.16;5026950;28;20054;-66
2021/09/08 08:14:16;;;;;;;9.68;4.93;;;;;;;21.93;79.86;101457.97;5028047;28;20120;-66
2021/09/08 08:16:43;;;;;;;8.80;4.78;;;;;;;22.08;80.36;101464.06;5028944;28;20060;-66
2021/09/08 08:19:09;;;;;;;6.03;3.53;;;;;;;22.16;78.36;101460.03;5002399;28;20038;-66
2021/09/08 08:21:35;;;;;;;7.07;3.70;;;;;;;22.26;79.49;101461.84;5013860;28;20046;-66
2021/09/08 08:24:01;;;;;;;8.95;4.43;;;;;;;22.35;79.80;101454.66;5025748;28;20067;-67
2021/09/08 08:26:26;;;;;;;8.48;4.13;;;;;;;22.52;79.50;101463.78;5011594;28;20764;-66
2021/09/08 08:28:53;;;;;;;7.80;4.10;;;;;;;22.66;77.69;101460.06;5008983;28;20049;-66
2021/09/08 08:31:19;;;;;;;8.60;4.22;;;;;;;22.66;77.11;101454.59;5012815;28;20032;-67
2021/09/08 08:33:46;;;;;;;7.13;4.50;;;;;;;22.73;75.96;101451.72;5016967;28;20494;-66
2021/09/08 08:36:12;;;;;;;12.02;4.07;;;;;;;22.79;75.38;101459.06;5028544;28;20048;-66
2021/09/08 08:38:40;;;;;;;7.13;4.07;;;;;;;22.93;75.55;101449.81;5026922;28;20132;-66
2021/09/08 08:41:06;;;;;;;6.38;3.92;;;;;;;23.06;75.09;101453.50;5025081;28;20044;-66
2021/09/08 08:43:32;;;;;;;6.85;4.13;;;;;;;23.20;74.70;101451.28;5028324;28;20045;-66
2021/09/08 08:45:58;;;;;;;9.73;4.65;;;;;;;23.28;71.62;101452.69;5022590;28;20029;-66
2021/09/08 08:48:24;;;;;;;7.38;4.20;;;;;;;23.32;71.54;101455.41;5029808;28;20426;-66
2021/09/08 08:50:51;;;;;;;8.35;4.22;;;;;;;23.45;73.33;101458.28;5024140;28;20088;-66
2021/09/08 08:53:17;;;;;;;6.43;3.75;;;;;;;23.51;72.09;101454.63;5028891;28;20029;-66
2021/09/08 08:55:42;;;;;;;8.07;4.32;;;;;;;23.68;71.12;101463.72;5023000;28;20041;-66
2021/09/08 08:58:07;;;;;;;12.45;4.22;;;;;;;23.83;70.52;101465.75;5024782;28;20073;-67
2021/09/08 09:00:33;;;;;;;8.35;3.83;;;;;;;24.00;70.04;101463.81;5024556;28;20416;-67
2021/09/08 09:02:58;;;;;;;6.28;3.22;;;;;;;24.16;70.80;101461.13;5005161;28;20041;-67
2021/09/08 09:05:39;;;;;;;6.63;3.67;;;;;;;24.25;66.37;101458.56;5018947;28;20025;-66
2021/09/08 09:08:10;;;;;;;6.70;3.90;;;;;;;24.24;66.89;101462.50;5008624;28;20056;-66
2021/09/08 09:10:36;;;;;;;8.48;4.50;;;;;;;24.32;64.94;101460.38;5019529;28;20296;-67
2021/09/08 09:13:03;;;;;;;6.90;4.50;;;;;;;24.41;65.85;101453.06;5019495;28;20038;-67
2021/09/08 09:15:29;;;;;;;6.78;3.88;;;;;;;24.41;66.48;101455.81;5021150;28;20040;-66
2021/09/08 09:17:55;;;;;;;9.00;4.60;;;;;;;24.46;65.49;101449.03;5027363;28;20402;-66
2021/09/08 09:20:26;;;;;;;6.22;3.90;;;;;;;24.51;65.69;101448.50;5023719;28;20136;-66
2021/09/08 09:22:53;;;;;;;;;;;;;;;24.47;66.64;101445.84;5023833;28;20045;-66
2021/09/08 09:25:28;;;;;;;6.65;3.95;;;;;;;24.68;65.11;101447.31;5025269;28;19947;-67
2021/09/08 09:27:57;;;;;;;6.18;3.67;;;;;;;24.62;64.02;101449.03;5023824;28;20435;-66
2021/09/08 09:30:28;;;;;;;8.13;4.00;;;;;;;24.67;65.13;101438.25;5018054;28;20037;-66
2021/09/08 09:32:55;;;;;;;7.03;3.88;;;;;;;24.77;64.88;101440.00;5030504;28;20052;-66
2021/09/08 09:35:26;;;;;;;7.75;3.97;;;;;;;24.91;62.25;101433.34;5015993;28;20532;-66
2021/09/08 09:37:54;;;;;;;4.65;3.20;;;;;;;24.92;64.76;101434.88;5007127;28;20137;-67
2021/09/08 09:40:26;;;;;;;5.35;3.15;;;;;;;24.97;63.45;101431.63;5028114;28;20029;-67
2021/09/08 09:42:52;;;;;;;6.40;3.55;;;;;;;25.03;63.54;101429.88;5030476;28;20045;-67
2021/09/08 09:45:18;;;;;;;5.53;3.20;;;;;;;25.17;62.84;101429.50;5028339;28;20044;-67
2021/09/08 09:47:46;;;;;;;8.23;4.10;;;;;;;25.30;62.09;101424.78;5028633;28;20075;-67
2021/09/08 09:50:20;;;;;;;6.05;3.45;;;;;;;25.42;61.25;101424.09;5030012;28;20088;-67
2021/09/08 09:52:54;;;;;;;7.68;3.83;;;;;;;25.60;61.96;101415.28;5029535;28;20086;-67
2021/09/08 09:55:24;;;;;;;6.85;3.13;;;;;;;25.85;60.86;101412.56;5028918;28;20501;-67
2021/09/08 09:57:50;;;;;;;6.20;4.00;;;;;;;25.92;58.96;101413.13;5019230;28;20414;-67
2021/09/08 10:00:17;;;;;;;6.95;3.30;;;;;;;25.77;57.85;101405.72;5020929;28;20036;-67
2021/09/08 10:02:46;;;;;;;5.38;3.28;;;;;;;25.76;57.71;101410.44;5028588;22;20045;31
2021/09/08 10:05:13;;;;;;;6.43;3.17;;;;;;;25.78;57.20;101404.50;4986582;28;19921;-68
2021/09/08 10:07:39;;;;;;;6.70;3.35;;;;;;;25.78;57.74;101399.75;4990127;28;20109;-68
2021/09/08 10:10:11;;;;;;;5.60;3.40;;;;;;;25.80;59.68;101402.09;4988496;28;20109;-68
2021/09/08 10:12:46;;;;;;;5.78;3.05;;;;;;;25.72;58.19;101397.97;4987461;28;20117;-69
2021/09/08 10:15:16;;;;;;;4.32;3.25;;;;;;;25.61;58.44;101394.78;4989001;28;20101;-69
2021/09/08 10:17:46;;;;;;;5.57;2.97;;;;;;;25.63;60.18;101390.34;4991800;28;20061;-68
2021/09/08 10:20:20;;;;;;;4.70;3.00;;;;;;;25.73;60.44;101394.00;4973674;28;20046;-69
2021/09/08 10:22:48;;;;;;;5.28;2.58;;;;;;;25.84;57.08;101391.72;4990058;28;20122;-68
2021/09/08 10:25:17;;;;;;;5.07;2.85;;;;;;;25.93;57.44;101380.75;4989043;28;20038;-68
2021/09/08 10:27:43;;;;;;;6.38;2.78;;;;;;;25.93;56.57;101386.28;4990052;28;20026;-69
2021/09/08 10:30:10;;;;;;;6.13;2.45;;;;;;;25.99;58.12;101381.75;4987845;28;20446;-71
2021/09/08 10:32:36;;;;;;;4.30;2.55;;;;;;;25.84;56.82;101383.41;4990796;28;20053;-68
2021/09/08 10:35:16;;;;;;;5.10;2.78;;;;;;;25.76;57.01;101376.56;4990825;28;20068;-69
2021/09/08 10:37:45;;;;;;;6.00;3.03;;;;;;;25.76;58.19;101369.03;4990318;28;20161;-69
2021/09/08 10:40:12;;;;;;;6.47;3.30;;;;;;;25.76;58.28;101366.28;4960678;28;20525;-68
2021/09/08 10:42:45;;;;;;;4.28;2.45;;;;;;;25.87;58.91;101363.97;4983696;28;20030;-68
2021/09/08 10:45:19;;;;;;;4.13;2.60;;;;;;;25.91;60.30;101358.34;4992002;28;20398;-68
2021/09/08 10:47:44;;;;;;;4.05;2.60;;;;;;;25.97;56.33;101353.03;4987288;28;20030;-70
2021/09/08 10:50:10;;;;;;;3.38;2.40;;;;;;;26.07;56.38;101349.19;4985544;28;20088;-69
2021/09/08 10:52:36;;;;;;;5.00;2.42;;;;;;;26.25;59.01;101352.91;4971930;28;20109;-71
2021/09/08 10:55:01;;;;;;;4.10;2.38;;;;;;;26.38;59.46;101361.97;4989989;28;20046;-71
2021/09/08 10:57:42;;;;;;;4.43;2.60;;;;;;;26.37;59.15;101349.34;4990616;28;20034;-69
2021/09/08 11:00:22;;;;;;;4.20;2.25;;;;;;;26.48;56.17;101347.00;4968544;28;20061;-70
2021/09/08 11:02:48;;;;;;;3.65;2.30;;;;;;;26.46;55.66;101346.66;4986140;28;20034;-68
2021/09/08 11:05:14;;;;;;;3.80;2.35;;;;;;;26.51;55.67;101337.03;4989154;28;20084;-69
2021/09/08 11:07:44;;;;;;;4.85;2.70;;;;;;;26.58;56.63;101334.03;4990599;28;20094;-68
2021/09/08 11:10:12;;;;;;;3.92;2.35;;;;;;;26.68;54.28;101330.13;4987912;28;20069;-69
2021/09/08 11:12:56;;;;;;;4.70;2.38;;;;;;;26.65;54.97;101331.03;4986801;28;20116;-70
2021/09/08 11:15:36;;;;;;;3.45;2.42;;;;;;;26.55;54.82;101327.41;4987678;28;20034;-68
2021/09/08 11:18:10;;;;;;;4.10;2.38;;;;;;;26.70;55.69;101333.25;4987035;28;20467;-69
2021/09/08 11:20:36;;;;;;;3.47;2.42;;;;;;;26.81;56.78;101324.56;4987185;28;20034;-70